createdAt,value
2023-03-26T00:01:27.753Z,69.99
2023-03-26T00:03:55.349Z,69.97
2023-03-26T00:06:24.950Z,70.21
2023-03-26T00:08:53.199Z,69.89
2023-03-26T00:11:21.928Z,70.30
2023-03-26T00:13:49.021Z,70.88
2023-03-26T00:16:19.786Z,71.35
2023-03-26T00:18:47.419Z,71.10
2023-03-26T00:21:16.410Z,70.54
2023-03-26T00:23:44.039Z,70.87
2023-03-26T00:26:11.286Z,69.90
2023-03-26T00:28:40.569Z,70.11
2023-03-26T00:31:11.350Z,70.64
2023-03-26T00:33:38.568Z,71.18
2023-03-26T00:36:10.104Z,70.93
2023-03-26T00:38:39.193Z,70.84
2023-03-26T00:41:17.990Z,71.26
2023-03-26T00:43:46.717Z,70.85
2023-03-26T00:46:13.959Z,70.62
2023-03-26T00:48:45.800Z,70.07
2023-03-26T00:51:15.669Z,70.07
2023-03-26T00:53:44.926Z,70.04
2023-03-26T00:56:12.200Z,70.86
2023-03-26T00:58:39.397Z,71.16
2023-03-26T01:01:09.739Z,71.78
2023-03-26T01:03:38.675Z,71.59
2023-03-26T01:06:12.840Z,71.89
2023-03-26T01:08:43.063Z,71.98
2023-03-26T01:11:14.624Z,72.05
2023-03-26T01:13:48.472Z,71.33
2023-03-26T01:16:27.020Z,71.33
2023-03-26T01:18:54.623Z,71.24
2023-03-26T01:21:28.718Z,71.54
2023-03-26T01:23:59.827Z,72.07
2023-03-26T01:26:29.718Z,72.39
2023-03-26T01:29:02.426Z,72.29
2023-03-26T01:32:02.892Z,72.82
2023-03-26T01:34:30.739Z,73.38
2023-03-26T01:37:00.698Z,73.72
2023-03-26T01:39:39.018Z,73.68
2023-03-26T01:42:19.366Z,73.75
2023-03-26T01:44:55.416Z,74.11
2023-03-26T01:47:23.172Z,74.13
2023-03-26T01:49:49.926Z,74.05
2023-03-26T01:52:20.877Z,74.14
2023-03-26T01:54:48.273Z,74.22
2023-03-26T01:57:27.074Z,74.01
2023-03-26T02:00:11.824Z,73.80
2023-03-26T02:02:44.154Z,73.95
2023-03-26T02:05:29.920Z,74.25
2023-03-26T02:08:05.911Z,73.72
2023-03-26T02:10:38.223Z,73.95
2023-03-26T02:13:06.210Z,74.12
2023-03-26T02:15:33.590Z,74.21
2023-03-26T02:18:02.032Z,73.64
2023-03-26T02:20:30.233Z,73.22
2023-03-26T02:22:57.870Z,73.41
2023-03-26T02:25:25.243Z,73.46
2023-03-26T02:27:53.115Z,73.49
2023-03-26T02:30:29.768Z,73.34
2023-03-26T02:33:00.055Z,72.91
2023-03-26T02:35:34.687Z,72.39
2023-03-26T02:38:02.881Z,72.38
2023-03-26T02:40:29.737Z,72.58
2023-03-26T02:42:58.970Z,72.76
2023-03-26T02:45:28.003Z,72.22
2023-03-26T02:48:06.548Z,72.49
2023-03-26T02:50:56.501Z,72.75
2023-03-26T02:53:47.454Z,72.61
2023-03-26T02:56:48.049Z,72.56
2023-03-26T02:59:31.881Z,72.18
2023-03-26T03:02:18.344Z,72.94
2023-03-26T03:04:46.712Z,72.44
2023-03-26T03:07:17.962Z,72.39
2023-03-26T03:09:45.597Z,72.27
2023-03-26T03:12:42.720Z,72.30
2023-03-26T03:15:10.257Z,72.02
2023-03-26T03:17:37.128Z,71.77
2023-03-26T03:20:05.369Z,71.34
2023-03-26T03:22:34.845Z,71.52
2023-03-26T03:25:02.774Z,71.27
2023-03-26T03:27:29.809Z,71.56
2023-03-26T03:30:05.450Z,71.46
2023-03-26T03:32:51.125Z,71.90
2023-03-26T03:35:22.867Z,72.09
2023-03-26T03:37:54.303Z,72.16
2023-03-26T03:40:21.112Z,71.95
2023-03-26T03:42:48.563Z,73.29
2023-03-26T03:45:24.410Z,73.42
2023-03-26T03:48:06.682Z,74.26
2023-03-26T03:50:39.562Z,74.12
2023-03-26T03:53:20.617Z,74.42
2023-03-26T03:55:54.399Z,74.82
2023-03-26T03:58:28.439Z,74.75
2023-03-26T04:01:04.450Z,74.57
2023-03-26T04:04:04.013Z,74.75
2023-03-26T04:06:45.592Z,74.96
2023-03-26T04:09:14.784Z,75.17
2023-03-26T04:11:43.168Z,75.65
2023-03-26T04:14:19.889Z,75.69
2023-03-26T04:17:06.909Z,75.75
2023-03-26T04:19:37.507Z,75.82
2023-03-26T04:22:07.520Z,75.82
2023-03-26T04:24:40.684Z,75.24
2023-03-26T04:27:35.412Z,75.55
2023-03-26T04:30:23.357Z,75.59
2023-03-26T04:33:04.195Z,75.45
2023-03-26T04:35:36.949Z,75.24
2023-03-26T04:38:06.604Z,75.32
2023-03-26T04:40:39.177Z,75.45
2023-03-26T04:43:35.642Z,74.85
2023-03-26T04:46:23.516Z,74.71
2023-03-26T04:49:00.746Z,74.97
2023-03-26T04:51:38.196Z,75.08
2023-03-26T04:54:14.401Z,74.85
2023-03-26T04:56:59.051Z,75.46
2023-03-26T04:59:37.215Z,75.94
2023-03-26T05:02:08.442Z,76.06
2023-03-26T05:04:46.300Z,76.36
2023-03-26T05:07:19.988Z,76.17
2023-03-26T05:09:57.598Z,76.21
2023-03-26T05:12:46.560Z,76.21
2023-03-26T05:15:17.901Z,75.95
2023-03-26T05:17:48.533Z,76.12
2023-03-26T05:20:28.041Z,76.33
2023-03-26T05:22:54.823Z,76.31
2023-03-26T05:25:26.049Z,76.28
2023-03-26T05:27:53.682Z,76.15
2023-03-26T05:30:23.893Z,76.22
2023-03-26T05:32:56.811Z,76.25
2023-03-26T05:35:28.872Z,76.51
2023-03-26T05:37:56.163Z,76.28
2023-03-26T05:40:24.466Z,76.42
2023-03-26T05:42:59.743Z,76.88
2023-03-26T05:45:35.692Z,76.96
2023-03-26T05:48:15.424Z,76.44
2023-03-26T05:50:42.203Z,77.09
2023-03-26T05:53:09.204Z,76.43
2023-03-26T05:55:58.028Z,76.08
2023-03-26T05:58:43.656Z,76.10
2023-03-26T06:01:31.777Z,75.96
2023-03-26T06:04:21.532Z,76.33
2023-03-26T06:07:10.106Z,76.45
2023-03-26T06:09:39.807Z,76.16
2023-03-26T06:12:08.439Z,76.21
2023-03-26T06:14:36.374Z,76.25
2023-03-26T06:17:10.814Z,76.62
2023-03-26T06:20:10.746Z,76.89
2023-03-26T06:22:40.465Z,76.65
2023-03-26T06:25:37.854Z,76.62
2023-03-26T06:28:13.320Z,76.86
2023-03-26T06:31:01.652Z,77.19
2023-03-26T06:33:35.878Z,77.20
2023-03-26T06:36:03.013Z,76.02
2023-03-26T06:38:29.771Z,76.06
2023-03-26T06:41:03.502Z,76.13
2023-03-26T06:43:50.223Z,75.84
2023-03-26T06:46:46.117Z,75.87
2023-03-26T06:49:36.119Z,76.60
2023-03-26T06:52:16.575Z,77.79
2023-03-26T06:55:14.759Z,78.32
2023-03-26T06:58:07.390Z,78.56
2023-03-26T07:00:55.333Z,79.02
2023-03-26T07:03:45.351Z,79.08
2023-03-26T07:06:30.909Z,78.79
2023-03-26T07:09:15.975Z,78.33
2023-03-26T07:12:15.849Z,78.50
2023-03-26T07:15:03.442Z,78.26
2023-03-26T07:17:48.899Z,77.98
2023-03-26T07:20:22.175Z,77.27
2023-03-26T07:22:49.553Z,77.32
2023-03-26T07:25:33.562Z,77.78
2023-03-26T07:29:04.650Z,77.28
2023-03-26T07:31:52.714Z,77.60
2023-03-26T07:34:49.138Z,77.48
2023-03-26T07:37:31.789Z,77.11
2023-03-26T07:40:54.829Z,76.48
2023-03-26T07:43:33.217Z,76.13
2023-03-26T07:46:29.043Z,75.65
2023-03-26T07:49:20.494Z,75.63
2023-03-26T07:52:01.379Z,75.46
2023-03-26T07:54:47.225Z,75.14
2023-03-26T07:57:40.921Z,73.58
2023-03-26T08:00:41.500Z,73.47
2023-03-26T08:03:13.917Z,73.19
2023-03-26T08:06:03.786Z,73.48
2023-03-26T08:09:26.743Z,73.31
2023-03-26T08:12:23.059Z,72.61
2023-03-26T08:15:03.405Z,72.22
2023-03-26T08:17:31.742Z,71.54
2023-03-26T08:20:11.060Z,71.89
2023-03-26T08:22:43.385Z,70.95
2023-03-26T08:25:47.184Z,70.21
2023-03-26T08:28:53.029Z,69.48
2023-03-26T08:31:33.831Z,69.92
2023-03-26T08:34:01.541Z,70.24
2023-03-26T08:36:28.536Z,70.16
2023-03-26T08:38:55.580Z,69.96
2023-03-26T08:41:42.376Z,70.51
2023-03-26T08:44:13.767Z,70.18
2023-03-26T08:46:53.011Z,70.40
2023-03-26T08:50:04.019Z,67.90
2023-03-26T08:52:58.640Z,69.57
2023-03-26T08:55:49.674Z,68.82
2023-03-26T08:58:37.772Z,68.92
2023-03-26T09:01:22.716Z,68.34
2023-03-26T09:04:05.637Z,68.13
2023-03-26T09:06:51.205Z,68.73
2023-03-26T09:09:48.692Z,68.88
2023-03-26T09:12:51.115Z,67.64
2023-03-26T09:15:53.181Z,66.71
2023-03-26T09:18:59.488Z,63.95
2023-03-26T09:21:47.905Z,65.18
2023-03-26T09:24:47.547Z,67.96
2023-03-26T09:27:39.512Z,67.10
2023-03-26T09:30:20.460Z,66.90
2023-03-26T09:33:03.522Z,68.50
2023-03-26T09:35:53.572Z,67.14
2023-03-26T09:38:41.882Z,67.82
2023-03-26T09:41:35.454Z,67.32
2023-03-26T09:44:11.604Z,67.25
2023-03-26T09:47:03.621Z,66.30
2023-03-26T09:49:30.445Z,66.78
2023-03-26T09:52:15.997Z,66.59
2023-03-26T09:54:48.615Z,66.29
2023-03-26T09:57:24.285Z,65.49
2023-03-26T10:00:21.801Z,63.94
2023-03-26T10:03:05.697Z,64.52
2023-03-26T10:06:11.821Z,66.46
2023-03-26T10:09:29.168Z,65.27
2023-03-26T10:12:22.373Z,66.19
2023-03-26T10:15:18.443Z,65.70
2023-03-26T10:18:26.712Z,68.06
2023-03-26T10:21:04.912Z,66.09
2023-03-26T10:23:57.377Z,65.86
2023-03-26T10:26:41.841Z,67.48
2023-03-26T10:29:43.756Z,66.82
2023-03-26T10:32:19.515Z,65.28
2023-03-26T10:35:21.381Z,65.83
2023-03-26T10:38:16.117Z,66.50
2023-03-26T10:41:00.640Z,64.86
2023-03-26T10:43:42.703Z,65.03
2023-03-26T10:46:26.695Z,66.03
2023-03-26T10:49:16.864Z,65.31
2023-03-26T10:52:03.300Z,65.87
2023-03-26T10:55:07.145Z,64.86
2023-03-26T10:57:45.868Z,64.81
2023-03-26T11:00:17.688Z,65.33
2023-03-26T11:03:13.524Z,66.31
2023-03-26T11:05:55.479Z,63.62
2023-03-26T11:08:41.477Z,64.08
2023-03-26T11:11:08.196Z,65.35
2023-03-26T11:13:58.626Z,63.66
2023-03-26T11:16:48.432Z,64.79
2023-03-26T11:19:35.928Z,65.11
2023-03-26T11:22:08.802Z,65.22
2023-03-26T11:24:50.360Z,65.48
2023-03-26T11:27:26.438Z,63.48
2023-03-26T11:30:07.713Z,64.51
2023-03-26T11:32:48.350Z,64.97
2023-03-26T11:35:41.692Z,66.04
2023-03-26T11:38:32.871Z,65.89
2023-03-26T11:41:02.108Z,65.71
2023-03-26T11:43:52.590Z,64.89
2023-03-26T11:46:23.061Z,64.32
2023-03-26T11:48:59.499Z,64.45
2023-03-26T11:51:34.271Z,64.20
2023-03-26T11:54:06.081Z,65.25
2023-03-26T11:56:41.227Z,65.14
2023-03-26T11:59:45.148Z,64.66
2023-03-26T12:02:29.896Z,62.92
2023-03-26T12:05:17.956Z,63.35
2023-03-26T12:07:52.426Z,64.09
2023-03-26T12:10:26.630Z,63.58
2023-03-26T12:13:02.900Z,63.45
2023-03-26T12:15:32.170Z,63.17
2023-03-26T12:18:17.883Z,64.20
2023-03-26T12:20:45.082Z,64.65
2023-03-26T12:23:35.425Z,62.37
2023-03-26T12:26:15.011Z,59.83
2023-03-26T12:28:50.410Z,59.44
2023-03-26T12:31:19.147Z,61.03
2023-03-26T12:34:04.939Z,60.49
2023-03-26T12:36:33.848Z,60.94
2023-03-26T12:40:09.766Z,62.22
2023-03-26T12:44:45.117Z,61.35
2023-03-26T12:45:23.946Z,61.06
2023-03-26T12:48:00.516Z,61.28
2023-03-26T12:50:54.729Z,61.02
2023-03-26T12:53:29.115Z,61.74
2023-03-26T12:56:01.345Z,61.55
2023-03-26T12:58:38.348Z,62.98
2023-03-26T13:01:06.187Z,63.54
2023-03-26T13:03:55.350Z,63.12
2023-03-26T13:06:59.112Z,60.99
2023-03-26T13:09:44.763Z,61.63
2023-03-26T13:12:20.110Z,62.16
2023-03-26T13:15:06.861Z,62.48
2023-03-26T13:17:43.938Z,60.54
2023-03-26T13:20:27.160Z,60.02
2023-03-26T13:22:54.215Z,59.49
2023-03-26T13:25:40.115Z,59.83
2023-03-26T13:28:31.404Z,58.43
2023-03-26T13:31:16.718Z,59.09
2023-03-26T13:33:49.425Z,59.36
2023-03-26T13:36:36.103Z,60.15
2023-03-26T13:39:37.472Z,61.09
2023-03-26T13:42:18.377Z,61.34
2023-03-26T13:45:13.884Z,61.86
2023-03-26T13:47:48.411Z,61.93
2023-03-26T13:50:29.098Z,61.73
2023-03-26T13:53:17.698Z,61.82
2023-03-26T13:55:51.474Z,62.22
2023-03-26T13:58:52.402Z,61.51
2023-03-26T14:01:46.117Z,62.45
2023-03-26T14:04:23.724Z,61.62
2023-03-26T14:06:57.829Z,63.37
2023-03-26T14:09:46.583Z,63.67
2023-03-26T14:12:34.250Z,64.81
2023-03-26T14:15:04.315Z,65.29
2023-03-26T14:17:41.328Z,65.83
2023-03-26T14:20:29.654Z,66.73
2023-03-26T14:23:07.942Z,67.59
2023-03-26T14:25:46.897Z,68.69
2023-03-26T14:28:47.569Z,69.38
2023-03-26T14:31:46.339Z,70.49
2023-03-26T14:34:29.049Z,70.95
2023-03-26T14:37:18.894Z,71.54
2023-03-26T14:40:31.585Z,71.82
2023-03-26T14:43:05.526Z,72.49
2023-03-26T14:45:44.498Z,72.88
2023-03-26T14:48:29.986Z,73.33
2023-03-26T14:51:09.218Z,73.69
2023-03-26T14:53:40.764Z,74.39
2023-03-26T14:56:22.027Z,74.76
2023-03-26T14:59:21.751Z,75.16
2023-03-26T15:02:17.610Z,75.43
2023-03-26T15:05:14.599Z,75.73
2023-03-26T15:08:07.030Z,76.10
2023-03-26T15:11:08.932Z,76.49
2023-03-26T15:13:56.992Z,77.26
2023-03-26T15:16:39.827Z,77.73
2023-03-26T15:19:28.711Z,78.06
2023-03-26T15:22:33.912Z,79.10
2023-03-26T15:25:33.134Z,80.29
2023-03-26T15:28:25.915Z,80.84
2023-03-26T15:31:37.253Z,81.72
2023-03-26T15:34:23.355Z,82.54
2023-03-26T15:36:51.042Z,83.00
2023-03-26T15:40:07.788Z,83.93
2023-03-26T15:43:01.504Z,84.28
2023-03-26T15:45:34.075Z,84.52
2023-03-26T15:48:01.482Z,84.33
2023-03-26T15:50:38.045Z,84.72
2023-03-26T15:53:38.925Z,85.40
2023-03-26T15:56:36.773Z,85.70
2023-03-26T15:59:11.350Z,85.60
2023-03-26T16:02:04.086Z,85.79
2023-03-26T16:04:50.322Z,85.86
2023-03-26T16:07:21.920Z,86.31
2023-03-26T16:10:09.346Z,86.00
2023-03-26T16:13:14.544Z,86.09
2023-03-26T16:15:42.812Z,86.39
2023-03-26T16:18:22.417Z,86.79
2023-03-26T16:20:55.141Z,86.84
2023-03-26T16:23:27.430Z,86.97
2023-03-26T16:25:59.364Z,87.02
2023-03-26T16:28:32.404Z,87.03
2023-03-26T16:31:10.604Z,87.38
2023-03-26T16:34:07.901Z,87.70
2023-03-26T16:36:37.229Z,87.64
2023-03-26T16:39:07.765Z,88.08
2023-03-26T16:41:50.096Z,88.20
2023-03-26T16:44:27.571Z,88.29
2023-03-26T16:47:14.873Z,88.16
2023-03-26T16:50:10.764Z,88.43
2023-03-26T16:52:56.160Z,88.29
2023-03-26T16:55:43.836Z,88.64
2023-03-26T16:58:45.617Z,89.03
2023-03-26T17:01:43.695Z,89.11
2023-03-26T17:04:20.529Z,89.29
2023-03-26T17:07:43.126Z,89.33
2023-03-26T17:10:30.846Z,89.75
2023-03-26T17:13:11.818Z,89.17
2023-03-26T17:15:59.719Z,89.47
2023-03-26T17:18:45.672Z,89.77
2023-03-26T17:21:24.551Z,89.46
2023-03-26T17:24:00.166Z,89.30
2023-03-26T17:26:35.395Z,89.14
2023-03-26T17:29:22.902Z,89.38
2023-03-26T17:32:01.173Z,89.37
2023-03-26T17:34:40.313Z,89.11
2023-03-26T17:37:28.312Z,89.22
2023-03-26T17:39:57.864Z,89.66
2023-03-26T17:42:37.683Z,89.74
2023-03-26T17:45:20.544Z,89.55
2023-03-26T17:47:54.032Z,89.48
2023-03-26T17:50:34.838Z,89.63
2023-03-26T17:53:19.599Z,89.72
2023-03-26T17:55:49.570Z,89.62
2023-03-26T17:58:20.729Z,89.78
2023-03-26T18:00:52.832Z,89.40
2023-03-26T18:03:34.438Z,89.62
2023-03-26T18:06:09.264Z,89.74
2023-03-26T18:08:48.972Z,89.98
2023-03-26T18:11:18.571Z,88.60
2023-03-26T18:13:56.937Z,88.86
2023-03-26T18:16:30.949Z,87.94
2023-03-26T18:19:00.720Z,87.52
2023-03-26T18:21:37.338Z,88.06
2023-03-26T18:24:06.988Z,88.52
2023-03-26T18:26:41.094Z,88.21
2023-03-26T18:29:24.672Z,87.29
2023-03-26T18:31:58.400Z,85.57
2023-03-26T18:34:27.228Z,84.98
2023-03-26T18:37:10.958Z,86.27
2023-03-26T18:39:38.466Z,84.68
2023-03-26T18:42:06.919Z,85.21
2023-03-26T18:44:39.045Z,83.60
2023-03-26T18:47:07.426Z,84.59
2023-03-26T18:49:36.591Z,83.99
2023-03-26T18:52:03.718Z,82.77
2023-03-26T18:54:35.592Z,84.65
2023-03-26T18:57:15.232Z,83.80
2023-03-26T18:59:45.466Z,83.64
2023-03-26T19:02:15.058Z,82.22
2023-03-26T19:04:46.276Z,83.23
2023-03-26T19:07:17.255Z,83.60
2023-03-26T19:09:44.922Z,84.24
2023-03-26T19:12:24.037Z,85.54
2023-03-26T19:15:03.500Z,85.53
2023-03-26T19:17:36.827Z,84.64
2023-03-26T19:20:07.655Z,84.07
2023-03-26T19:22:34.546Z,84.98
2023-03-26T19:25:02.738Z,84.38
2023-03-26T19:27:29.580Z,83.77
2023-03-26T19:29:56.508Z,84.46
2023-03-26T19:32:34.728Z,84.86
2023-03-26T19:35:04.207Z,85.07
2023-03-26T19:37:31.537Z,85.07
2023-03-26T19:40:12.802Z,84.81
2023-03-26T19:42:43.001Z,84.62
2023-03-26T19:45:23.294Z,83.63
2023-03-26T19:48:00.367Z,83.87
2023-03-26T19:50:33.799Z,83.67
2023-03-26T19:53:16.104Z,83.78
2023-03-26T19:55:57.409Z,84.21
2023-03-26T19:58:26.088Z,84.42
2023-03-26T20:00:53.242Z,82.71
2023-03-26T20:03:29.481Z,83.49
2023-03-26T20:05:56.659Z,83.91
2023-03-26T20:08:27.079Z,84.19
2023-03-26T20:10:56.620Z,84.18
2023-03-26T20:13:23.565Z,83.83
2023-03-26T20:18:45.329Z,83.38
2023-03-26T20:21:12.894Z,83.47
2023-03-26T20:23:40.930Z,83.79
2023-03-26T20:26:12.864Z,83.24
2023-03-26T20:28:47.742Z,82.91
2023-03-26T20:31:19.922Z,82.44
2023-03-26T20:33:48.063Z,82.73
2023-03-26T20:36:33.670Z,83.06
2023-03-26T20:39:06.165Z,83.02
2023-03-26T20:41:34.552Z,82.97
2023-03-26T20:44:03.750Z,82.30
2023-03-26T20:46:31.916Z,82.59
2023-03-26T20:48:59.984Z,82.20
2023-03-26T20:51:28.842Z,82.29
2023-03-26T20:53:56.167Z,83.33
2023-03-26T20:56:23.614Z,82.45
2023-03-26T20:59:03.627Z,82.28
2023-03-26T21:01:38.129Z,82.79
2023-03-26T21:04:05.995Z,83.08
2023-03-26T21:06:32.938Z,82.46
2023-03-26T21:09:00.046Z,82.83
2023-03-26T21:11:46.640Z,82.91
2023-03-26T21:14:18.569Z,82.99
2023-03-26T21:16:45.732Z,82.71
2023-03-26T21:19:14.755Z,82.51
2023-03-26T21:21:59.201Z,82.18
2023-03-26T21:24:44.264Z,82.03
2023-03-26T21:27:28.845Z,82.37
2023-03-26T21:29:56.387Z,82.01
2023-03-26T21:32:23.540Z,81.70
2023-03-26T21:34:58.571Z,81.79
2023-03-26T21:37:27.065Z,81.57
2023-03-26T21:39:54.364Z,81.93
2023-03-26T21:42:21.535Z,81.76
2023-03-26T21:44:48.455Z,81.90
2023-03-26T21:47:15.576Z,81.66
2023-03-26T21:49:42.478Z,82.05
2023-03-26T21:52:15.013Z,82.51
2023-03-26T21:54:43.194Z,82.39
2023-03-26T21:57:15.990Z,82.57
2023-03-26T22:00:11.424Z,82.71
2023-03-26T22:03:29.192Z,83.09
2023-03-26T22:06:22.334Z,83.57
2023-03-26T22:08:49.319Z,83.54
2023-03-26T22:11:16.247Z,83.54
2023-03-26T22:13:43.696Z,83.49
2023-03-26T22:16:10.875Z,83.49
2023-03-26T22:18:38.062Z,83.90
2023-03-26T22:21:05.945Z,84.00
2023-03-26T22:23:36.615Z,84.06
2023-03-26T22:26:05.032Z,83.43
2023-03-26T22:28:32.279Z,83.30
2023-03-26T22:30:59.475Z,83.75
2023-03-26T22:33:26.818Z,84.17
2023-03-26T22:35:56.491Z,84.36
2023-03-26T22:38:23.730Z,84.20
2023-03-26T22:40:57.794Z,84.00
2023-03-26T22:43:24.927Z,84.21
2023-03-26T22:45:53.697Z,84.05
2023-03-26T22:48:23.917Z,84.30
2023-03-26T22:51:05.668Z,83.82
2023-03-26T22:53:32.667Z,83.88
2023-03-26T22:56:00.386Z,84.26
2023-03-26T22:58:28.229Z,84.28
2023-03-26T23:01:20.330Z,84.57
2023-03-26T23:03:47.344Z,84.28
2023-03-26T23:06:14.248Z,83.58
2023-03-26T23:08:41.265Z,83.15
2023-03-26T23:11:13.631Z,83.50
2023-03-26T23:13:41.675Z,83.36
2023-03-26T23:16:10.234Z,84.06
2023-03-26T23:18:38.226Z,84.32
2023-03-26T23:21:12.044Z,84.60
2023-03-26T23:23:39.861Z,83.67
2023-03-26T23:26:07.141Z,83.64
2023-03-26T23:28:35.167Z,84.08
2023-03-26T23:31:07.532Z,85.01
2023-03-26T23:33:36.356Z,85.53
2023-03-26T23:36:09.055Z,85.33
2023-03-26T23:38:43.742Z,85.19
2023-03-26T23:41:15.358Z,85.39
2023-03-26T23:43:53.197Z,85.80
2023-03-26T23:46:23.622Z,85.74
2023-03-26T23:48:53.592Z,86.79
2023-03-26T23:51:21.467Z,86.38
2023-03-26T23:53:49.524Z,86.22
2023-03-26T23:56:17.505Z,86.42
2023-03-26T23:58:44.594Z,85.77
